SUD1A KPHL-KEYW
Flight info
| Callsign | SUD1A |
|---|---|
| Flight time | N/A |
| Altitude | 34000 |
| Route | OOD TEBEE HAYDO TRPOD Q409 CRPLR EARZZ Q131 WAALT Y289 BAHAA AR17 HIBAC EBAYY FNTSY1 |
| Aircraft | A320/M-SDFGHILORVWY/S |
Departure
| Time | 2026-05-04 09:39 |
|---|---|
| Airport | Philadelphia International Airport (KPHL) |
Arrival
| Time | N/A |
|---|---|
| Airport | Key West International Airport (KEYW) |
| Time | Latitude | Longitude | Altitude | Speed | Heading |
|---|---|---|---|---|---|
| 2026-05-04 09:28 | 39.87354 | -75.24381 | 26 ft | 0 kts | 1° |
| 2026-05-04 09:32 | 39.87351 | -75.24382 | 25 ft | 1 kts | 1° |
| 2026-05-04 09:32 | 39.87333 | -75.24382 | 28 ft | 3 kts | 1° |
| 2026-05-04 09:34 | 39.87284 | -75.24415 | 31 ft | 0 kts | 75° |
| 2026-05-04 09:34 | 39.87286 | -75.24404 | 28 ft | 3 kts | 76° |
| 2026-05-04 09:34 | 39.87298 | -75.24341 | 30 ft | 11 kts | 75° |
| 2026-05-04 09:35 | 39.87324 | -75.24216 | 25 ft | 15 kts | 75° |
| 2026-05-04 09:35 | 39.87350 | -75.24087 | 27 ft | 14 kts | 75° |
| 2026-05-04 09:35 | 39.87374 | -75.23969 | 25 ft | 13 kts | 75° |
| 2026-05-04 09:35 | 39.87347 | -75.23875 | 25 ft | 13 kts | 143° |
| 2026-05-04 09:37 | 39.87476 | -75.23096 | 30 ft | 18 kts | 75° |
| 2026-05-04 09:37 | 39.87507 | -75.22944 | 28 ft | 16 kts | 75° |
| 2026-05-04 09:38 | 39.87533 | -75.22808 | 25 ft | 14 kts | 76° |
| 2026-05-04 09:38 | 39.87562 | -75.22660 | 30 ft | 18 kts | 75° |
| 2026-05-04 09:38 | 39.87531 | -75.22534 | 27 ft | 16 kts | 163° |
| 2026-05-04 09:38 | 39.87452 | -75.22647 | 25 ft | 38 kts | 257° |
| 2026-05-04 09:39 | 39.87325 | -75.23281 | 25 ft | 105 kts | 255° |
| 2026-05-04 09:39 | 39.87091 | -75.24444 | 26 ft | 158 kts | 254° |
| 2026-05-04 09:39 | 39.86792 | -75.25875 | 567 ft | 161 kts | 253° |
| 2026-05-04 09:39 | 39.86513 | -75.27284 | 1344 ft | 159 kts | 252° |
| 2026-05-04 09:40 | 39.86125 | -75.28621 | 2018 ft | 162 kts | 233° |
| 2026-05-04 09:40 | 39.85132 | -75.29493 | 2317 ft | 190 kts | 199° |
| 2026-05-04 09:40 | 39.83707 | -75.29632 | 2604 ft | 219 kts | 186° |
| 2026-05-04 09:40 | 39.82102 | -75.29680 | 3013 ft | 242 kts | 185° |
| 2026-05-04 09:41 | 39.80386 | -75.29729 | 3756 ft | 250 kts | 185° |
| 2026-05-04 09:42 | 39.67502 | -75.30165 | 9559 ft | 277 kts | 187° |
| 2026-05-04 09:43 | 39.65566 | -75.30237 | 10304 ft | 282 kts | 187° |
| 2026-05-04 09:43 | 39.63528 | -75.30346 | 10543 ft | 304 kts | 190° |
| 2026-05-04 09:43 | 39.61360 | -75.30726 | 10740 ft | 325 kts | 192° |
| 2026-05-04 09:43 | 39.59067 | -75.31148 | 11172 ft | 338 kts | 192° |
| 2026-05-04 09:44 | 39.56720 | -75.31571 | 11820 ft | 343 kts | 192° |
| 2026-05-04 09:44 | 39.54341 | -75.31996 | 12506 ft | 347 kts | 192° |
| 2026-05-04 09:44 | 39.51939 | -75.32429 | 13204 ft | 350 kts | 192° |
| 2026-05-04 09:46 | 39.34391 | -75.35598 | 17337 ft | 378 kts | 192° |
| 2026-05-04 09:46 | 39.31773 | -75.36070 | 17867 ft | 382 kts | 193° |
| 2026-05-04 09:46 | 39.29135 | -75.36544 | 18437 ft | 385 kts | 193° |
| 2026-05-04 09:47 | 39.26508 | -75.37017 | 18946 ft | 388 kts | 193° |
| 2026-05-04 09:47 | 39.23830 | -75.37499 | 19479 ft | 390 kts | 193° |
| 2026-05-04 09:49 | 39.04684 | -75.40909 | 23091 ft | 403 kts | 195° |
| 2026-05-04 09:49 | 39.01903 | -75.41403 | 23561 ft | 405 kts | 195° |
| 2026-05-04 09:49 | 38.99106 | -75.41904 | 23951 ft | 407 kts | 195° |
| 2026-05-04 09:51 | 38.83005 | -75.44758 | 26006 ft | 415 kts | 195° |
| 2026-05-04 09:51 | 38.80136 | -75.45258 | 26363 ft | 417 kts | 195° |
| 2026-05-04 09:51 | 38.77263 | -75.45765 | 26684 ft | 418 kts | 196° |
| 2026-05-04 09:51 | 38.74377 | -75.46276 | 27005 ft | 420 kts | 196° |
| 2026-05-04 09:52 | 38.71478 | -75.46790 | 27316 ft | 421 kts | 196° |
| 2026-05-04 09:52 | 38.68566 | -75.47309 | 27619 ft | 423 kts | 196° |
| 2026-05-04 09:52 | 38.65649 | -75.47830 | 27906 ft | 424 kts | 196° |
| 2026-05-04 09:52 | 38.62732 | -75.48347 | 28276 ft | 423 kts | 196° |
| 2026-05-04 09:53 | 38.59807 | -75.48861 | 28585 ft | 424 kts | 196° |
| 2026-05-04 09:53 | 38.56880 | -75.49371 | 28860 ft | 426 kts | 196° |
| 2026-05-04 09:53 | 38.53941 | -75.49881 | 29118 ft | 427 kts | 196° |
| 2026-05-04 09:53 | 38.51032 | -75.50386 | 29373 ft | 428 kts | 196° |
| 2026-05-04 09:54 | 38.48035 | -75.50908 | 29623 ft | 429 kts | 196° |
| 2026-05-04 09:54 | 38.45080 | -75.51421 | 29946 ft | 428 kts | 196° |
| 2026-05-04 09:54 | 38.42141 | -75.51929 | 30308 ft | 424 kts | 197° |
| 2026-05-04 09:54 | 38.39239 | -75.52430 | 30723 ft | 419 kts | 197° |
| 2026-05-04 09:55 | 38.36392 | -75.53040 | 31056 ft | 409 kts | 202° |
| 2026-05-04 09:55 | 38.33724 | -75.54147 | 31360 ft | 398 kts | 211° |
| 2026-05-04 09:55 | 38.31284 | -75.55716 | 31655 ft | 390 kts | 218° |
| 2026-05-04 09:55 | 38.29049 | -75.57618 | 31947 ft | 385 kts | 221° |
| 2026-05-04 09:56 | 38.26871 | -75.59525 | 32253 ft | 384 kts | 221° |
| 2026-05-04 09:56 | 38.24644 | -75.61469 | 32550 ft | 383 kts | 220° |
| 2026-05-04 09:56 | 38.22451 | -75.63373 | 32820 ft | 381 kts | 220° |
| 2026-05-04 09:56 | 38.20266 | -75.65268 | 33146 ft | 379 kts | 220° |
| 2026-05-04 09:57 | 38.18094 | -75.67152 | 33457 ft | 377 kts | 220° |
| 2026-05-04 09:57 | 38.15935 | -75.69026 | 33771 ft | 375 kts | 220° |
| 2026-05-04 09:57 | 38.13784 | -75.70894 | 34038 ft | 374 kts | 220° |
| 2026-05-04 09:58 | 38.09484 | -75.74622 | 34105 ft | 374 kts | 220° |
| 2026-05-04 09:58 | 38.05186 | -75.78341 | 34105 ft | 374 kts | 220° |
| 2026-05-04 10:00 | 37.87865 | -75.93307 | 34101 ft | 377 kts | 220° |
| 2026-05-04 10:04 | 37.56867 | -76.18207 | 34089 ft | 390 kts | 206° |
| 2026-05-04 10:04 | 37.51694 | -76.20344 | 34093 ft | 392 kts | 205° |
| 2026-05-04 10:05 | 37.46504 | -76.22491 | 34092 ft | 393 kts | 206° |
| 2026-05-04 10:05 | 37.41307 | -76.24641 | 34099 ft | 393 kts | 206° |
| 2026-05-04 10:06 | 37.36107 | -76.26794 | 34075 ft | 394 kts | 205° |
| 2026-05-04 10:06 | 37.30905 | -76.28944 | 34089 ft | 394 kts | 205° |
| 2026-05-04 10:08 | 37.12679 | -76.36455 | 34070 ft | 394 kts | 205° |
| 2026-05-04 10:08 | 37.07463 | -76.38597 | 34083 ft | 395 kts | 205° |
| 2026-05-04 10:09 | 37.02243 | -76.40740 | 34093 ft | 395 kts | 205° |
| 2026-05-04 10:09 | 36.97024 | -76.42880 | 34119 ft | 395 kts | 205° |
| 2026-05-04 10:10 | 36.91808 | -76.45012 | 34085 ft | 395 kts | 205° |
| 2026-05-04 10:10 | 36.86585 | -76.47143 | 34097 ft | 395 kts | 205° |
| 2026-05-04 10:11 | 36.81359 | -76.49278 | 34105 ft | 395 kts | 205° |
| 2026-05-04 10:11 | 36.76126 | -76.51402 | 34123 ft | 396 kts | 205° |
| 2026-05-04 10:12 | 36.70878 | -76.53536 | 34110 ft | 397 kts | 205° |
| 2026-05-04 10:12 | 36.65607 | -76.55685 | 34103 ft | 400 kts | 205° |
| 2026-05-04 10:13 | 36.60320 | -76.57832 | 34107 ft | 400 kts | 205° |
| 2026-05-04 10:13 | 36.55023 | -76.59971 | 34113 ft | 400 kts | 205° |
| 2026-05-04 10:14 | 36.49720 | -76.62103 | 34119 ft | 401 kts | 205° |
| 2026-05-04 10:16 | 36.28366 | -76.70713 | 34139 ft | 404 kts | 205° |
| 2026-05-04 10:16 | 36.23015 | -76.72849 | 34109 ft | 404 kts | 204° |
| 2026-05-04 10:17 | 36.17657 | -76.74997 | 34121 ft | 405 kts | 205° |
| 2026-05-04 10:19 | 35.96173 | -76.83598 | 34136 ft | 409 kts | 204° |
| 2026-05-04 10:19 | 35.90793 | -76.85837 | 34137 ft | 405 kts | 210° |
| 2026-05-04 10:20 | 35.85772 | -76.88903 | 34134 ft | 403 kts | 212° |
| 2026-05-04 10:20 | 35.80748 | -76.91993 | 34136 ft | 404 kts | 212° |
| 2026-05-04 10:21 | 35.75708 | -76.95095 | 34111 ft | 405 kts | 212° |
| 2026-05-04 10:21 | 35.70653 | -76.98205 | 34123 ft | 406 kts | 212° |
| 2026-05-04 10:22 | 35.63059 | -77.02867 | 34132 ft | 407 kts | 212° |
| 2026-05-04 10:23 | 35.57987 | -77.05970 | 34136 ft | 407 kts | 212° |
| 2026-05-04 10:25 | 35.37508 | -77.18465 | 34148 ft | 412 kts | 211° |
| 2026-05-04 10:25 | 35.32369 | -77.21593 | 34150 ft | 412 kts | 211° |
| 2026-05-04 10:26 | 35.27229 | -77.24717 | 34157 ft | 413 kts | 212° |
| 2026-05-04 10:26 | 35.22081 | -77.27840 | 34153 ft | 413 kts | 212° |
| 2026-05-04 10:27 | 35.16924 | -77.30959 | 34156 ft | 414 kts | 212° |
| 2026-05-04 10:27 | 35.11765 | -77.34071 | 34158 ft | 414 kts | 212° |
| 2026-05-04 10:28 | 35.06603 | -77.37183 | 34133 ft | 414 kts | 212° |
| 2026-05-04 10:28 | 35.01436 | -77.40303 | 34139 ft | 415 kts | 212° |
| 2026-05-04 10:29 | 34.96259 | -77.43419 | 34145 ft | 415 kts | 211° |
| 2026-05-04 10:29 | 34.91949 | -77.46012 | 34148 ft | 416 kts | 211° |
| 2026-05-04 10:30 | 34.86759 | -77.49131 | 34148 ft | 416 kts | 211° |
| 2026-05-04 10:30 | 34.81549 | -77.52252 | 34140 ft | 419 kts | 211° |
| 2026-05-04 10:31 | 34.76319 | -77.55388 | 34147 ft | 419 kts | 211° |
| 2026-05-04 10:32 | 34.57942 | -77.66353 | 34120 ft | 423 kts | 210° |
| 2026-05-04 10:33 | 34.52240 | -77.68448 | 34135 ft | 434 kts | 198° |
| 2026-05-04 10:33 | 34.46325 | -77.69942 | 34135 ft | 435 kts | 198° |
| 2026-05-04 10:34 | 34.40400 | -77.71448 | 34139 ft | 435 kts | 198° |
| 2026-05-04 10:34 | 34.34470 | -77.72953 | 34120 ft | 436 kts | 197° |
| 2026-05-04 10:35 | 34.28529 | -77.74463 | 34130 ft | 436 kts | 197° |
| 2026-05-04 10:35 | 34.22587 | -77.75975 | 34138 ft | 437 kts | 197° |
| 2026-05-04 10:36 | 34.16641 | -77.77483 | 34144 ft | 437 kts | 197° |
| 2026-05-04 10:36 | 34.10691 | -77.78989 | 34116 ft | 437 kts | 197° |
| 2026-05-04 10:37 | 34.04744 | -77.80495 | 34129 ft | 437 kts | 197° |
| 2026-05-04 10:37 | 33.98791 | -77.81993 | 34133 ft | 437 kts | 197° |
| 2026-05-04 10:39 | 33.77965 | -77.87255 | 34125 ft | 436 kts | 198° |
| 2026-05-04 10:40 | 33.72131 | -77.89149 | 34138 ft | 434 kts | 201° |
| 2026-05-04 10:40 | 33.66392 | -77.91223 | 34146 ft | 434 kts | 201° |
| 2026-05-04 10:41 | 33.60603 | -77.93267 | 34122 ft | 433 kts | 201° |
| 2026-05-04 10:41 | 33.54768 | -77.95246 | 34150 ft | 433 kts | 200° |
| 2026-05-04 10:42 | 33.48965 | -77.97181 | 34139 ft | 434 kts | 200° |
| 2026-05-04 10:42 | 33.43130 | -77.99135 | 34117 ft | 436 kts | 200° |
| 2026-05-04 10:43 | 33.37278 | -78.01116 | 34128 ft | 438 kts | 201° |
| 2026-05-04 10:45 | 33.13760 | -78.09022 | 34140 ft | 439 kts | 200° |
| 2026-05-04 10:45 | 33.07856 | -78.11000 | 34122 ft | 445 kts | 201° |
| 2026-05-04 10:46 | 33.01907 | -78.12991 | 34123 ft | 448 kts | 201° |
| 2026-05-04 10:46 | 32.95853 | -78.15011 | 34125 ft | 450 kts | 201° |
| 2026-05-04 10:47 | 32.89826 | -78.17028 | 34131 ft | 450 kts | 201° |
| 2026-05-04 10:47 | 32.83788 | -78.19042 | 34134 ft | 451 kts | 201° |
| 2026-05-04 10:49 | 32.59615 | -78.27060 | 34129 ft | 452 kts | 201° |
| 2026-05-04 10:50 | 32.53560 | -78.29061 | 34153 ft | 451 kts | 201° |
| 2026-05-04 10:52 | 32.29430 | -78.37011 | 34154 ft | 448 kts | 201° |
| 2026-05-04 10:52 | 32.23425 | -78.38983 | 34161 ft | 447 kts | 201° |
| 2026-05-04 10:54 | 31.99520 | -78.46801 | 34172 ft | 443 kts | 201° |
| 2026-05-04 10:56 | 31.75901 | -78.54491 | 34151 ft | 438 kts | 202° |
| 2026-05-04 10:57 | 31.70033 | -78.56405 | 34157 ft | 438 kts | 202° |
| 2026-05-04 10:57 | 31.64162 | -78.58306 | 34160 ft | 437 kts | 202° |
| 2026-05-04 10:58 | 31.58292 | -78.60199 | 34157 ft | 437 kts | 202° |
| 2026-05-04 10:58 | 31.52438 | -78.62098 | 34142 ft | 435 kts | 203° |
| 2026-05-04 10:59 | 31.46631 | -78.64082 | 34162 ft | 434 kts | 204° |
| 2026-05-04 10:59 | 31.40855 | -78.66088 | 34168 ft | 433 kts | 203° |
| 2026-05-04 11:00 | 31.35125 | -78.68069 | 34169 ft | 432 kts | 203° |
| 2026-05-04 11:02 | 31.11943 | -78.75956 | 34146 ft | 434 kts | 204° |
| 2026-05-04 11:05 | 30.68681 | -78.90604 | 34129 ft | 429 kts | 204° |
| 2026-05-04 11:06 | 30.62947 | -78.92534 | 34135 ft | 429 kts | 204° |
| 2026-05-04 11:06 | 30.57213 | -78.94456 | 34141 ft | 429 kts | 204° |
| 2026-05-04 11:10 | 30.18068 | -79.10063 | 34121 ft | 425 kts | 208° |
| 2026-05-04 11:12 | 29.95828 | -79.19694 | 34114 ft | 428 kts | 208° |
| 2026-05-04 11:12 | 29.90295 | -79.22088 | 34111 ft | 428 kts | 208° |
| 2026-05-04 11:13 | 29.84720 | -79.24496 | 34135 ft | 428 kts | 208° |
| 2026-05-04 11:13 | 29.79150 | -79.26906 | 34129 ft | 428 kts | 208° |
| 2026-05-04 11:16 | 29.52285 | -79.38476 | 34125 ft | 424 kts | 208° |
| 2026-05-04 11:16 | 29.46753 | -79.40850 | 34120 ft | 424 kts | 208° |
| 2026-05-04 11:17 | 29.41265 | -79.43201 | 34131 ft | 424 kts | 208° |
| 2026-05-04 11:19 | 29.19059 | -79.52684 | 34087 ft | 426 kts | 208° |
| 2026-05-04 11:19 | 29.13545 | -79.55033 | 34090 ft | 426 kts | 208° |
| 2026-05-04 11:20 | 29.08106 | -79.57691 | 34093 ft | 416 kts | 218° |
| 2026-05-04 11:20 | 29.03213 | -79.61086 | 34101 ft | 414 kts | 218° |
| 2026-05-04 11:22 | 28.83513 | -79.74683 | 34056 ft | 413 kts | 218° |
| 2026-05-04 11:23 | 28.78603 | -79.78076 | 34069 ft | 412 kts | 218° |
| 2026-05-04 11:25 | 28.61341 | -79.89945 | 34070 ft | 416 kts | 219° |
| 2026-05-04 11:25 | 28.56385 | -79.93343 | 34058 ft | 416 kts | 219° |
| 2026-05-04 11:27 | 28.34047 | -80.08610 | 34073 ft | 416 kts | 219° |
| 2026-05-04 11:28 | 28.29079 | -80.11991 | 34035 ft | 416 kts | 219° |
| 2026-05-04 11:28 | 28.24113 | -80.15374 | 34055 ft | 417 kts | 219° |
| 2026-05-04 11:29 | 28.19138 | -80.18753 | 34050 ft | 417 kts | 220° |
| 2026-05-04 11:29 | 28.14155 | -80.22142 | 34046 ft | 418 kts | 220° |
| 2026-05-04 11:33 | 27.79078 | -80.45857 | 34051 ft | 420 kts | 220° |
| 2026-05-04 11:33 | 27.73940 | -80.49052 | 34031 ft | 430 kts | 211° |
| 2026-05-04 11:34 | 27.71046 | -80.50062 | 34011 ft | 442 kts | 201° |
| 2026-05-04 11:34 | 27.67957 | -80.50504 | 34024 ft | 452 kts | 193° |
| 2026-05-04 11:34 | 27.61672 | -80.50985 | 34029 ft | 453 kts | 193° |
| 2026-05-04 11:35 | 27.55429 | -80.51474 | 34027 ft | 453 kts | 193° |
| 2026-05-04 11:35 | 27.49142 | -80.51974 | 34031 ft | 453 kts | 193° |
| 2026-05-04 11:36 | 27.42854 | -80.52473 | 34036 ft | 453 kts | 193° |
| 2026-05-04 11:36 | 27.36569 | -80.52966 | 34027 ft | 453 kts | 193° |
| 2026-05-04 11:37 | 27.30280 | -80.53463 | 34025 ft | 453 kts | 193° |
| 2026-05-04 11:37 | 27.23996 | -80.53960 | 34024 ft | 453 kts | 193° |
| 2026-05-04 11:38 | 27.17703 | -80.54454 | 34016 ft | 454 kts | 193° |
| 2026-05-04 11:38 | 27.11393 | -80.54952 | 34020 ft | 456 kts | 193° |
| 2026-05-04 11:39 | 27.05062 | -80.55450 | 34028 ft | 456 kts | 193° |
| 2026-05-04 11:41 | 26.82966 | -80.57170 | 34016 ft | 454 kts | 193° |
| 2026-05-04 11:41 | 26.76663 | -80.57667 | 34027 ft | 454 kts | 193° |
| 2026-05-04 11:42 | 26.70369 | -80.58158 | 34031 ft | 453 kts | 193° |
| 2026-05-04 11:42 | 26.64087 | -80.58654 | 34027 ft | 452 kts | 193° |
| 2026-05-04 11:43 | 26.57803 | -80.59145 | 34022 ft | 452 kts | 193° |
| 2026-05-04 11:43 | 26.51524 | -80.59626 | 33991 ft | 452 kts | 193° |
| 2026-05-04 11:44 | 26.45245 | -80.60110 | 33999 ft | 452 kts | 193° |
| 2026-05-04 11:44 | 26.38972 | -80.60596 | 34013 ft | 452 kts | 193° |
| 2026-05-04 11:45 | 26.32694 | -80.61083 | 34014 ft | 452 kts | 193° |
| 2026-05-04 11:45 | 26.29551 | -80.61325 | 33852 ft | 453 kts | 193° |
| 2026-05-04 11:45 | 26.26406 | -80.61567 | 33586 ft | 453 kts | 193° |
| 2026-05-04 11:45 | 26.23256 | -80.61811 | 33286 ft | 454 kts | 193° |
| 2026-05-04 11:46 | 26.20100 | -80.62055 | 33029 ft | 455 kts | 193° |
| 2026-05-04 11:46 | 26.16942 | -80.62297 | 32777 ft | 456 kts | 193° |
| 2026-05-04 11:46 | 26.13776 | -80.62535 | 32526 ft | 457 kts | 193° |
| 2026-05-04 11:46 | 26.10602 | -80.62771 | 32276 ft | 457 kts | 193° |
| 2026-05-04 11:47 | 26.07423 | -80.63008 | 32027 ft | 458 kts | 193° |
| 2026-05-04 11:47 | 26.04236 | -80.63244 | 31784 ft | 459 kts | 193° |
| 2026-05-04 11:47 | 26.01044 | -80.63479 | 31540 ft | 460 kts | 193° |
| 2026-05-04 11:47 | 25.97845 | -80.63716 | 31298 ft | 461 kts | 193° |
| 2026-05-04 11:48 | 25.94644 | -80.63956 | 31016 ft | 461 kts | 193° |
| 2026-05-04 11:48 | 25.91439 | -80.64198 | 30781 ft | 462 kts | 193° |
| 2026-05-04 11:48 | 25.88226 | -80.64438 | 30547 ft | 463 kts | 193° |
| 2026-05-04 11:48 | 25.85008 | -80.64676 | 30315 ft | 464 kts | 192° |
| 2026-05-04 11:49 | 25.81782 | -80.64914 | 30090 ft | 465 kts | 192° |
| 2026-05-04 11:49 | 25.75322 | -80.65393 | 30034 ft | 466 kts | 192° |
| 2026-05-04 11:50 | 25.68848 | -80.65876 | 29844 ft | 467 kts | 192° |
| 2026-05-04 11:50 | 25.65612 | -80.66113 | 29577 ft | 466 kts | 192° |
| 2026-05-04 11:50 | 25.62387 | -80.66349 | 29096 ft | 462 kts | 192° |
| 2026-05-04 11:50 | 25.59200 | -80.66579 | 28390 ft | 456 kts | 192° |
| 2026-05-04 11:51 | 25.56053 | -80.66806 | 27721 ft | 451 kts | 192° |
| 2026-05-04 11:51 | 25.52942 | -80.67036 | 27071 ft | 446 kts | 192° |
| 2026-05-04 11:51 | 25.49862 | -80.67264 | 26429 ft | 442 kts | 191° |
| 2026-05-04 11:51 | 25.46808 | -80.67491 | 25802 ft | 438 kts | 191° |
| 2026-05-04 11:52 | 25.43784 | -80.67716 | 25183 ft | 434 kts | 191° |
| 2026-05-04 11:52 | 25.40783 | -80.67939 | 24570 ft | 431 kts | 191° |
| 2026-05-04 11:52 | 25.37850 | -80.68358 | 23970 ft | 420 kts | 199° |
| 2026-05-04 11:52 | 25.35038 | -80.69134 | 23356 ft | 414 kts | 201° |
| 2026-05-04 11:53 | 25.32261 | -80.69922 | 22767 ft | 409 kts | 201° |
| 2026-05-04 11:53 | 25.30441 | -80.70433 | 22426 ft | 405 kts | 201° |
| 2026-05-04 11:53 | 25.26814 | -80.71444 | 21739 ft | 399 kts | 200° |
| 2026-05-04 11:53 | 25.24141 | -80.72186 | 21268 ft | 394 kts | 200° |
| 2026-05-04 11:55 | 25.06281 | -80.77179 | 18134 ft | 364 kts | 200° |
| 2026-05-04 11:55 | 25.04662 | -80.77632 | 17822 ft | 361 kts | 200° |
| 2026-05-04 11:56 | 25.02277 | -80.78407 | 17368 ft | 353 kts | 206° |
| 2026-05-04 11:56 | 25.00094 | -80.79546 | 16934 ft | 343 kts | 215° |
| 2026-05-04 11:56 | 24.98155 | -80.81019 | 16494 ft | 335 kts | 224° |
| 2026-05-04 11:56 | 24.96434 | -80.82714 | 16062 ft | 330 kts | 226° |
| 2026-05-04 11:57 | 24.94737 | -80.84408 | 15630 ft | 328 kts | 226° |
| 2026-05-04 11:57 | 24.93044 | -80.86087 | 15192 ft | 326 kts | 226° |
| 2026-05-04 11:57 | 24.91361 | -80.87749 | 14761 ft | 324 kts | 226° |
| 2026-05-04 11:57 | 24.89685 | -80.89406 | 14322 ft | 323 kts | 226° |
| 2026-05-04 11:58 | 24.88018 | -80.91060 | 13887 ft | 322 kts | 226° |
| 2026-05-04 11:58 | 24.86360 | -80.92710 | 13401 ft | 320 kts | 226° |
| 2026-05-04 11:58 | 24.84709 | -80.94347 | 12956 ft | 318 kts | 226° |
| 2026-05-04 11:58 | 24.83072 | -80.95966 | 12515 ft | 315 kts | 226° |
| 2026-05-04 11:59 | 24.81444 | -80.97578 | 12060 ft | 314 kts | 226° |
| 2026-05-04 11:59 | 24.79825 | -80.99185 | 11611 ft | 313 kts | 226° |
| 2026-05-04 11:59 | 24.78208 | -81.00787 | 11155 ft | 312 kts | 226° |
| 2026-05-04 11:59 | 24.76739 | -81.02518 | 10741 ft | 307 kts | 236° |
| 2026-05-04 12:00 | 24.75607 | -81.04434 | 10602 ft | 292 kts | 242° |
| 2026-05-04 12:00 | 24.74566 | -81.06306 | 10461 ft | 282 kts | 242° |
| 2026-05-04 12:00 | 24.73550 | -81.08120 | 10315 ft | 277 kts | 241° |
| 2026-05-04 12:00 | 24.72538 | -81.09923 | 10259 ft | 277 kts | 241° |
| 2026-05-04 12:01 | 24.71526 | -81.11726 | 10175 ft | 277 kts | 241° |
| 2026-05-04 12:01 | 24.70515 | -81.13531 | 10056 ft | 277 kts | 241° |
| 2026-05-04 12:02 | 24.64442 | -81.24203 | 7928 ft | 272 kts | 232° |
| 2026-05-04 12:03 | 24.63204 | -81.25776 | 7652 ft | 272 kts | 232° |
| 2026-05-04 12:03 | 24.61972 | -81.27344 | 7367 ft | 271 kts | 232° |
| 2026-05-04 12:03 | 24.60744 | -81.28910 | 7081 ft | 270 kts | 232° |
| 2026-05-04 12:03 | 24.59517 | -81.30475 | 6791 ft | 270 kts | 231° |
| 2026-05-04 12:04 | 24.58292 | -81.32033 | 6509 ft | 269 kts | 231° |
| 2026-05-04 12:04 | 24.57098 | -81.33612 | 6208 ft | 267 kts | 237° |
| 2026-05-04 12:04 | 24.56270 | -81.35418 | 5919 ft | 264 kts | 253° |
| 2026-05-04 12:04 | 24.55932 | -81.37386 | 5637 ft | 263 kts | 268° |
| 2026-05-04 12:05 | 24.55918 | -81.39390 | 5354 ft | 262 kts | 270° |
| 2026-05-04 12:05 | 24.55907 | -81.41389 | 5059 ft | 261 kts | 270° |
| 2026-05-04 12:05 | 24.55897 | -81.42698 | 4877 ft | 257 kts | 269° |